createdAt,value
2019-04-26T00:01:18.309Z,0.93
2019-04-26T00:06:23.054Z,0.70
2019-04-26T00:17:05.916Z,1.02
2019-04-26T00:22:10.699Z,1.10
2019-04-26T00:27:16.751Z,0.88
2019-04-26T00:32:21.527Z,0.70
2019-04-26T00:37:25.829Z,0.70
2019-04-26T00:42:31.818Z,1.00
2019-04-26T00:47:36.790Z,1.07
2019-04-26T00:52:42.471Z,0.80
2019-04-26T00:57:46.956Z,0.90
2019-04-26T01:02:54.200Z,0.90
2019-04-26T01:07:58.419Z,1.07
2019-04-26T01:13:02.805Z,0.98
2019-04-26T01:18:07.145Z,0.88
2019-04-26T01:23:13.037Z,0.80
2019-04-26T01:28:25.669Z,0.70
2019-04-26T01:33:31.981Z,0.82
2019-04-26T01:38:36.038Z,1.00
2019-04-26T01:43:49.075Z,0.90
2019-04-26T01:49:03.914Z,1.00
2019-04-26T01:54:10.900Z,0.98
2019-04-26T01:59:17.195Z,0.80
2019-04-26T02:04:23.924Z,1.10
2019-04-26T02:09:28.437Z,1.05
2019-04-26T02:14:33.331Z,1.25
2019-04-26T02:19:37.960Z,1.30
2019-04-26T02:24:45.127Z,1.42
2019-04-26T02:29:49.049Z,1.35
2019-04-26T02:34:53.550Z,1.70
2019-04-26T02:39:58.390Z,1.37
2019-04-26T02:45:29.999Z,1.57
2019-04-26T02:50:44.995Z,2.05
2019-04-26T02:56:31.631Z,1.85
2019-04-26T03:01:37.835Z,1.62
2019-04-26T03:07:01.825Z,1.82
2019-04-26T03:11:54.487Z,2.27
2019-04-26T03:17:24.002Z,1.70
2019-04-26T03:23:01.320Z,2.17
2019-04-26T03:28:36.758Z,1.62
2019-04-26T03:33:54.240Z,1.62
2019-04-26T03:39:15.908Z,2.10
2019-04-26T03:44:30.068Z,2.00
2019-04-26T03:50:07.982Z,2.17
2019-04-26T03:55:50.167Z,2.40
2019-04-26T04:01:00.000Z,2.30
2019-04-26T04:06:07.062Z,2.20
2019-04-26T04:11:14.531Z,2.10
2019-04-26T04:16:42.473Z,1.82
2019-04-26T04:21:56.539Z,1.80
2019-04-26T04:27:23.663Z,2.35
2019-04-26T04:32:47.567Z,2.15
2019-04-26T04:38:08.361Z,2.85
2019-04-26T04:43:33.436Z,2.72
2019-04-26T04:49:21.213Z,2.67
2019-04-26T04:54:37.604Z,2.42
2019-04-26T05:00:01.057Z,2.60
2019-04-26T05:05:34.356Z,3.37
2019-04-26T05:10:51.993Z,2.93
2019-04-26T05:16:25.952Z,3.25
2019-04-26T05:21:55.093Z,3.05
2019-04-26T05:27:44.193Z,3.52
2019-04-26T05:33:00.232Z,3.10
2019-04-26T05:38:18.581Z,3.20
2019-04-26T05:43:49.179Z,3.55
2019-04-26T05:49:35.956Z,3.70
2019-04-26T05:55:07.669Z,3.75
2019-04-26T06:00:36.926Z,3.35
2019-04-26T06:06:23.052Z,3.58
2019-04-26T06:11:36.281Z,3.50
2019-04-26T06:17:21.677Z,3.47
2019-04-26T06:22:57.456Z,3.27
2019-04-26T06:28:24.245Z,3.40
2019-04-26T06:33:35.765Z,3.42
2019-04-26T06:39:05.572Z,3.42
2019-04-26T06:44:14.974Z,2.50
2019-04-26T06:50:15.051Z,3.90
2019-04-26T06:55:39.920Z,4.00
2019-04-26T07:01:08.265Z,3.95
2019-04-26T07:06:15.248Z,4.45
2019-04-26T07:12:21.803Z,4.65
2019-04-26T07:18:05.048Z,5.50
2019-04-26T07:24:16.529Z,6.03
2019-04-26T07:29:57.161Z,6.72
2019-04-26T07:35:16.539Z,7.15
2019-04-26T07:41:07.978Z,6.75
2019-04-26T07:46:52.363Z,7.62
2019-04-26T07:52:48.392Z,8.98
2019-04-26T07:58:45.066Z,9.45
2019-04-26T08:03:59.533Z,8.73
2019-04-26T08:14:23.403Z,8.48
2019-04-26T08:19:30.551Z,8.35
2019-04-26T08:24:37.574Z,7.78
2019-04-26T08:29:45.086Z,7.78
2019-04-26T08:34:57.939Z,8.28
2019-04-26T08:40:07.765Z,7.08
2019-04-26T08:45:28.708Z,6.95
2019-04-26T08:50:53.072Z,7.25
2019-04-26T09:01:22.887Z,7.00
2019-04-26T09:06:36.038Z,6.78
2019-04-26T09:11:41.332Z,7.17
2019-04-26T09:16:50.367Z,7.90
2019-04-26T09:22:13.868Z,8.48
2019-04-26T09:27:36.455Z,7.90
2019-04-26T09:32:54.012Z,8.78
2019-04-26T09:37:58.449Z,7.35
2019-04-26T09:43:15.240Z,7.83
2019-04-26T09:48:26.600Z,8.13
2019-04-26T09:53:31.626Z,7.78
2019-04-26T09:58:37.210Z,8.60
2019-04-26T10:03:42.146Z,9.88
2019-04-26T10:08:47.090Z,11.12
2019-04-26T10:14:01.615Z,10.45
2019-04-26T10:19:10.508Z,11.22
2019-04-26T10:24:14.904Z,10.63
2019-04-26T10:29:21.651Z,11.20
2019-04-26T10:34:25.174Z,11.28
2019-04-26T10:39:32.505Z,10.70
2019-04-26T10:44:39.886Z,11.68
2019-04-26T10:49:44.313Z,11.33
2019-04-26T10:54:52.871Z,12.47
2019-04-26T10:59:58.871Z,11.78
2019-04-26T11:05:03.337Z,11.05
2019-04-26T11:10:07.977Z,10.28
2019-04-26T11:20:16.387Z,9.55
2019-04-26T11:25:24.725Z,10.03
2019-04-26T11:30:27.395Z,9.38
2019-04-26T11:35:33.267Z,9.40
2019-04-26T11:40:44.474Z,8.38
2019-04-26T11:46:03.792Z,9.80
2019-04-26T11:51:00.297Z,8.80
2019-04-26T11:56:07.465Z,11.53
2019-04-26T12:01:13.159Z,9.28
2019-04-26T12:06:44.822Z,9.30
2019-04-26T12:12:03.697Z,9.18
2019-04-26T12:16:59.739Z,9.35
2019-04-26T12:22:04.313Z,8.10
2019-04-26T12:27:11.097Z,9.78
2019-04-26T12:32:17.224Z,8.53
2019-04-26T12:37:21.249Z,8.83
2019-04-26T12:42:26.474Z,8.18
2019-04-26T12:48:03.994Z,7.62
2019-04-26T12:53:08.040Z,7.62
2019-04-26T12:58:15.199Z,7.62
2019-04-26T13:03:37.378Z,7.67
2019-04-26T13:08:47.227Z,6.33
2019-04-26T13:14:01.352Z,6.05
2019-04-26T13:19:09.065Z,6.33
2019-04-26T13:24:15.361Z,6.62
2019-04-26T13:29:22.983Z,6.62
2019-04-26T13:34:27.091Z,6.85
2019-04-26T13:39:31.147Z,6.08
2019-04-26T13:44:55.447Z,6.00
2019-04-26T13:55:15.563Z,6.05
2019-04-26T14:00:26.097Z,7.67
2019-04-26T14:05:30.527Z,7.05
2019-04-26T14:10:34.596Z,6.60
2019-04-26T14:15:39.460Z,7.00
2019-04-26T14:20:44.753Z,7.53
2019-04-26T14:26:10.102Z,7.00
2019-04-26T14:31:16.456Z,6.62
2019-04-26T14:36:22.718Z,5.67
2019-04-26T14:41:26.074Z,6.10
2019-04-26T14:46:30.438Z,6.17
2019-04-26T14:51:34.481Z,6.53
2019-04-26T14:56:51.528Z,6.75
2019-04-26T15:02:15.655Z,6.90
2019-04-26T15:07:19.915Z,7.55
2019-04-26T15:12:24.568Z,8.10
2019-04-26T15:22:32.985Z,9.23
2019-04-26T15:27:37.381Z,8.18
2019-04-26T15:32:42.647Z,7.90
2019-04-26T15:37:46.873Z,7.30
2019-04-26T15:43:02.976Z,8.55
2019-04-26T15:48:16.115Z,7.37
2019-04-26T15:53:22.107Z,8.30
2019-04-26T15:58:26.997Z,8.78
2019-04-26T16:03:32.598Z,8.80
2019-04-26T16:08:42.585Z,8.78
2019-04-26T16:13:45.125Z,9.03
2019-04-26T16:18:53.380Z,8.58
2019-04-26T16:23:55.287Z,8.70
2019-04-26T16:29:19.751Z,8.33
2019-04-26T16:39:32.353Z,8.90
2019-04-26T16:44:33.660Z,7.42
2019-04-26T16:49:41.946Z,8.28
2019-04-26T16:54:45.862Z,8.60
2019-04-26T17:00:35.776Z,8.93
2019-04-26T17:04:55.614Z,9.75
2019-04-26T17:10:00.009Z,9.10
2019-04-26T17:20:10.922Z,9.15
2019-04-26T17:25:37.293Z,8.65
2019-04-26T17:30:44.442Z,8.60
2019-04-26T17:35:47.271Z,8.83
2019-04-26T17:40:51.466Z,8.63
2019-04-26T17:45:55.584Z,8.45
2019-04-26T17:50:59.588Z,9.00
2019-04-26T17:56:06.353Z,20.73
2019-04-26T18:01:10.134Z,16.37
2019-04-26T18:06:15.513Z,10.18
2019-04-26T18:11:24.757Z,10.72
2019-04-26T18:16:29.420Z,10.13
2019-04-26T18:22:03.876Z,11.28
2019-04-26T18:27:09.814Z,13.55
2019-04-26T18:32:14.254Z,19.32
2019-04-26T18:37:18.817Z,20.40
2019-04-26T18:42:22.815Z,13.43
2019-04-26T18:47:32.228Z,10.47
2019-04-26T18:52:38.457Z,9.95
2019-04-26T18:57:43.036Z,12.70
2019-04-26T19:02:48.403Z,12.25
2019-04-26T19:07:53.121Z,16.80
2019-04-26T19:13:00.158Z,21.42
2019-04-26T19:18:33.982Z,19.40
2019-04-26T19:28:44.391Z,11.08
2019-04-26T19:33:51.518Z,11.68
2019-04-26T19:38:53.569Z,11.73
2019-04-26T19:43:59.115Z,12.35
2019-04-26T19:49:25.863Z,11.22
2019-04-26T19:54:38.294Z,11.50
2019-04-26T19:59:39.935Z,11.63
2019-04-26T20:04:44.035Z,11.88
2019-04-26T20:09:48.142Z,13.00
2019-04-26T20:14:56.775Z,12.45
2019-04-26T20:19:59.440Z,12.95
2019-04-26T20:25:03.494Z,12.25
2019-04-26T20:30:12.598Z,14.63
2019-04-26T20:35:26.524Z,13.85
2019-04-26T20:40:27.631Z,13.43
2019-04-26T20:45:41.125Z,11.75
2019-04-26T20:50:37.834Z,11.95
2019-04-26T20:55:42.748Z,13.10
2019-04-26T21:00:54.224Z,13.72
2019-04-26T21:05:58.788Z,12.58
2019-04-26T21:11:00.190Z,14.13
2019-04-26T21:16:10.627Z,13.15
2019-04-26T21:21:11.868Z,12.13
2019-04-26T21:26:35.590Z,11.97
2019-04-26T21:31:59.384Z,11.77
2019-04-26T21:37:22.141Z,11.70
2019-04-26T21:42:27.323Z,11.33
2019-04-26T21:47:32.931Z,11.15
2019-04-26T21:52:38.255Z,11.18
2019-04-26T21:57:43.902Z,11.18
2019-04-26T22:02:48.213Z,10.28
2019-04-26T22:07:53.487Z,10.45
2019-04-26T22:13:01.474Z,9.83
2019-04-26T22:18:10.309Z,10.10
2019-04-26T22:23:33.798Z,10.00
2019-04-26T22:28:37.840Z,9.03
2019-04-26T22:33:42.874Z,8.93
2019-04-26T22:38:47.797Z,7.97
2019-04-26T22:44:00.120Z,8.30
2019-04-26T22:49:05.720Z,9.10
2019-04-26T22:54:10.097Z,9.00
2019-04-26T22:59:14.049Z,8.75
2019-04-26T23:04:24.982Z,9.40
2019-04-26T23:09:24.439Z,8.70
2019-04-26T23:14:57.668Z,8.23
2019-04-26T23:20:19.369Z,8.27
2019-04-26T23:25:23.879Z,7.83
